Meteo Giornale » Osservazioni meteo Stati Uniti (USA) » Augusta State

ore: 01:53 - Osservazioni Meteo Augusta State
Lat. 44° 19' N Lon. 69° 47' W Alt. 107 metri s.l.m.

sereno

12 °C

Sereno

Temp. 24 Ore

11 °C

24 °C

Nord

0 Km/h

Dew point 11 °C

Umidità 93 %

Visibilità  10 Km

Il sole sorge alle ore 06:02

Il sole tramonta alle ore 19:15

Data e Ora Cielo e Fenomeni T °C DP °C Um. % Pres. hPa Vis. km Vento km/h
Oggi h: 01:53 sereno Sereno 12 11 93 1018 10 N 0
Oggi h: 00:53 sereno Sereno 13 11 87 1018 10 N 0
Ieri h: 23:53 sereno Sereno 14 10 76 1018 10 N 0
Ieri h: 22:53 sereno Sereno 14 10 76 1019 10 N 0
Ieri h: 21:53 sereno Sereno 15 9 67 1018 10 S/SO 7.4
Ieri h: 20:53 sereno Sereno 16 9 63 1018 10 S/SO 7.4
Ieri h: 19:53 sereno Sereno 18 9 55 1018 10 S 7.4
Ieri h: 18:53 sereno Sereno 21 10 49 1018 10 N 7.4
Ieri h: 17:53 sereno Sereno 23 8 38 1018 10 N 0
Ieri h: 16:53 sereno Sereno 24 9 38 1018 10 N 5.5
Ieri h: 15:53 sereno Sereno 24 9 38 1018 10 O/SO 9.3
Ieri h: 14:53 sereno Sereno 24 9 38 1018 10 N 5.5
Ieri h: 13:53 sereno Sereno 22 9 43 1019 10 N 0
Ieri h: 12:53 sereno Sereno 22 9 43 1019 10 O 11.1
Ieri h: 11:53 sereno Sereno 21 9 46 1020 10 NO 11.1
Ieri h: 10:53 sereno Sereno 19 9 52 1020 10 N/NO 11.1
Ieri h: 09:53 sereno Sereno 18 11 63 1020 10 NO 9.3
Ieri h: 08:53 sereno Sereno 16 12 77 1020 10 NO 9.3
Ieri h: 07:53 sereno Sereno 14 12 87 1020 10 NO 9.3
Ieri h: 06:53 sereno Sereno 12 11 93 1020 10 O/NO 7.4
Ieri h: 05:53 sereno Sereno 11 11 100 1019 10 O/NO 9.3
Ieri h: 04:53 sereno Sereno 12 11 93 1018 10 NO 9.3
Ieri h: 03:53 sereno Sereno 12 11 93 1018 10 N/NO 9.3
Ieri h: 02:53 sereno Sereno 12 12 100 1018 10 O/NO 9.3